sensor_id;sensor_type;location;lat;lon;timestamp;temperature;humidity
9919;DHT22;4998;51.024;13.828;2023-03-04T00:01:37;5.30;88.40
9919;DHT22;4998;51.024;13.828;2023-03-04T00:04:04;5.30;88.40
9919;DHT22;4998;51.024;13.828;2023-03-04T00:06:31;5.30;88.40
9919;DHT22;4998;51.024;13.828;2023-03-04T00:08:58;5.30;88.40
9919;DHT22;4998;51.024;13.828;2023-03-04T00:11:25;5.40;88.60
9919;DHT22;4998;51.024;13.828;2023-03-04T00:13:52;5.40;88.60
9919;DHT22;4998;51.024;13.828;2023-03-04T00:16:19;5.40;88.60
9919;DHT22;4998;51.024;13.828;2023-03-04T00:18:47;5.40;88.40
9919;DHT22;4998;51.024;13.828;2023-03-04T00:21:14;5.40;88.30
9919;DHT22;4998;51.024;13.828;2023-03-04T00:23:41;5.40;88.20
9919;DHT22;4998;51.024;13.828;2023-03-04T00:26:08;5.40;88.10
9919;DHT22;4998;51.024;13.828;2023-03-04T00:28:35;5.40;88.10
9919;DHT22;4998;51.024;13.828;2023-03-04T00:31:04;5.40;88.10
9919;DHT22;4998;51.024;13.828;2023-03-04T00:33:30;5.40;88.10
9919;DHT22;4998;51.024;13.828;2023-03-04T00:35:59;5.40;88.10
9919;DHT22;4998;51.024;13.828;2023-03-04T00:38:26;5.40;88.20
9919;DHT22;4998;51.024;13.828;2023-03-04T00:40:54;5.40;88.10
9919;DHT22;4998;51.024;13.828;2023-03-04T00:43:21;5.50;88.20
9919;DHT22;4998;51.024;13.828;2023-03-04T00:45:48;5.50;88.20
9919;DHT22;4998;51.024;13.828;2023-03-04T00:48:15;5.50;88.20
9919;DHT22;4998;51.024;13.828;2023-03-04T00:50:42;5.50;88.20
9919;DHT22;4998;51.024;13.828;2023-03-04T00:53:11;5.50;88.20
9919;DHT22;4998;51.024;13.828;2023-03-04T00:55:38;5.50;88.20
9919;DHT22;4998;51.024;13.828;2023-03-04T00:58:05;5.50;88.20
9919;DHT22;4998;51.024;13.828;2023-03-04T01:00:32;5.50;88.20
9919;DHT22;4998;51.024;13.828;2023-03-04T01:02:59;5.50;88.20
9919;DHT22;4998;51.024;13.828;2023-03-04T01:05:26;5.50;88.20
9919;DHT22;4998;51.024;13.828;2023-03-04T01:07:53;5.50;88.00
9919;DHT22;4998;51.024;13.828;2023-03-04T01:10:21;5.50;88.00
9919;DHT22;4998;51.024;13.828;2023-03-04T01:12:48;5.50;88.00
9919;DHT22;4998;51.024;13.828;2023-03-04T01:15:15;5.60;88.20
9919;DHT22;4998;51.024;13.828;2023-03-04T01:17:42;5.50;88.10
9919;DHT22;4998;51.024;13.828;2023-03-04T01:20:11;5.60;88.20
9919;DHT22;4998;51.024;13.828;2023-03-04T01:22:38;5.60;88.20
9919;DHT22;4998;51.024;13.828;2023-03-04T01:25:06;5.60;88.10
9919;DHT22;4998;51.024;13.828;2023-03-04T01:27:34;5.60;88.00
9919;DHT22;4998;51.024;13.828;2023-03-04T01:30:02;5.60;87.90
9919;DHT22;4998;51.024;13.828;2023-03-04T01:32:29;5.60;87.80
9919;DHT22;4998;51.024;13.828;2023-03-04T01:34:56;5.60;87.70
9919;DHT22;4998;51.024;13.828;2023-03-04T01:37:23;5.60;87.70
9919;DHT22;4998;51.024;13.828;2023-03-04T01:39:50;5.60;87.70
9919;DHT22;4998;51.024;13.828;2023-03-04T01:42:19;5.60;87.60
9919;DHT22;4998;51.024;13.828;2023-03-04T01:44:48;5.60;87.50
9919;DHT22;4998;51.024;13.828;2023-03-04T01:47:16;5.60;87.50
9919;DHT22;4998;51.024;13.828;2023-03-04T01:49:52;5.60;87.50
9919;DHT22;4998;51.024;13.828;2023-03-04T01:52:19;5.60;87.40
9919;DHT22;4998;51.024;13.828;2023-03-04T01:54:47;5.60;87.30
9919;DHT22;4998;51.024;13.828;2023-03-04T01:57:16;5.60;87.30
9919;DHT22;4998;51.024;13.828;2023-03-04T01:59:44;5.60;87.20
9919;DHT22;4998;51.024;13.828;2023-03-04T02:02:13;5.60;87.30
9919;DHT22;4998;51.024;13.828;2023-03-04T02:04:41;5.60;87.30
9919;DHT22;4998;51.024;13.828;2023-03-04T02:07:08;5.60;87.30
9919;DHT22;4998;51.024;13.828;2023-03-04T02:09:35;5.60;87.40
9919;DHT22;4998;51.024;13.828;2023-03-04T02:12:03;5.60;87.40
9919;DHT22;4998;51.024;13.828;2023-03-04T02:14:30;5.60;87.30
9919;DHT22;4998;51.024;13.828;2023-03-04T02:16:57;5.60;87.30
9919;DHT22;4998;51.024;13.828;2023-03-04T02:19:36;5.70;87.40
9919;DHT22;4998;51.024;13.828;2023-03-04T02:22:05;5.70;87.30
9919;DHT22;4998;51.024;13.828;2023-03-04T02:24:36;5.70;87.10
9919;DHT22;4998;51.024;13.828;2023-03-04T02:27:06;5.70;87.10
9919;DHT22;4998;51.024;13.828;2023-03-04T02:29:33;5.70;87.10
9919;DHT22;4998;51.024;13.828;2023-03-04T02:32:01;5.70;87.10
9919;DHT22;4998;51.024;13.828;2023-03-04T02:34:30;5.70;87.10
9919;DHT22;4998;51.024;13.828;2023-03-04T02:36:58;5.70;87.00
9919;DHT22;4998;51.024;13.828;2023-03-04T02:39:30;5.70;86.90
9919;DHT22;4998;51.024;13.828;2023-03-04T02:41:58;5.70;86.90
9919;DHT22;4998;51.024;13.828;2023-03-04T02:44:28;5.70;86.90
9919;DHT22;4998;51.024;13.828;2023-03-04T02:46:56;5.70;87.00
9919;DHT22;4998;51.024;13.828;2023-03-04T02:49:25;5.70;87.00
9919;DHT22;4998;51.024;13.828;2023-03-04T02:51:57;5.70;86.90
9919;DHT22;4998;51.024;13.828;2023-03-04T02:54:24;5.70;86.80
9919;DHT22;4998;51.024;13.828;2023-03-04T02:56:53;5.70;86.80
9919;DHT22;4998;51.024;13.828;2023-03-04T02:59:21;5.70;86.80
9919;DHT22;4998;51.024;13.828;2023-03-04T03:01:50;5.70;86.90
9919;DHT22;4998;51.024;13.828;2023-03-04T03:04:18;5.70;86.90
9919;DHT22;4998;51.024;13.828;2023-03-04T03:06:45;5.70;86.80
9919;DHT22;4998;51.024;13.828;2023-03-04T03:09:13;5.70;86.80
9919;DHT22;4998;51.024;13.828;2023-03-04T03:11:40;5.70;87.70
9919;DHT22;4998;51.024;13.828;2023-03-04T03:14:07;5.70;86.90
9919;DHT22;4998;51.024;13.828;2023-03-04T03:16:34;5.70;86.90
9919;DHT22;4998;51.024;13.828;2023-03-04T03:19:02;5.70;86.90
9919;DHT22;4998;51.024;13.828;2023-03-04T03:21:29;5.70;86.80
9919;DHT22;4998;51.024;13.828;2023-03-04T03:23:56;5.70;86.80
9919;DHT22;4998;51.024;13.828;2023-03-04T03:26:23;5.70;86.70
9919;DHT22;4998;51.024;13.828;2023-03-04T03:28:50;5.70;86.70
9919;DHT22;4998;51.024;13.828;2023-03-04T03:31:17;5.70;86.70
9919;DHT22;4998;51.024;13.828;2023-03-04T03:33:44;5.70;86.70
9919;DHT22;4998;51.024;13.828;2023-03-04T03:36:13;5.60;86.70
9919;DHT22;4998;51.024;13.828;2023-03-04T03:38:40;5.70;86.80
9919;DHT22;4998;51.024;13.828;2023-03-04T03:41:07;5.60;86.70
9919;DHT22;4998;51.024;13.828;2023-03-04T03:43:34;5.60;86.80
9919;DHT22;4998;51.024;13.828;2023-03-04T03:46:01;5.60;86.80
9919;DHT22;4998;51.024;13.828;2023-03-04T03:48:28;5.60;86.90
9919;DHT22;4998;51.024;13.828;2023-03-04T03:50:55;5.60;87.00
9919;DHT22;4998;51.024;13.828;2023-03-04T03:53:23;5.60;87.00
9919;DHT22;4998;51.024;13.828;2023-03-04T03:55:50;5.60;87.10
9919;DHT22;4998;51.024;13.828;2023-03-04T03:58:17;5.60;87.10
9919;DHT22;4998;51.024;13.828;2023-03-04T04:00:44;5.60;87.10
9919;DHT22;4998;51.024;13.828;2023-03-04T04:03:13;5.60;87.10
9919;DHT22;4998;51.024;13.828;2023-03-04T04:05:40;5.60;87.20
9919;DHT22;4998;51.024;13.828;2023-03-04T04:08:11;5.60;87.10
9919;DHT22;4998;51.024;13.828;2023-03-04T04:10:40;5.60;87.20
9919;DHT22;4998;51.024;13.828;2023-03-04T04:13:07;5.60;87.20
9919;DHT22;4998;51.024;13.828;2023-03-04T04:15:34;5.50;87.10
9919;DHT22;4998;51.024;13.828;2023-03-04T04:18:03;5.50;87.10
9919;DHT22;4998;51.024;13.828;2023-03-04T04:20:30;5.50;87.20
9919;DHT22;4998;51.024;13.828;2023-03-04T04:22:57;5.50;87.10
9919;DHT22;4998;51.024;13.828;2023-03-04T04:25:24;5.60;87.20
9919;DHT22;4998;51.024;13.828;2023-03-04T04:27:53;5.50;87.10
9919;DHT22;4998;51.024;13.828;2023-03-04T04:30:20;5.50;87.20
9919;DHT22;4998;51.024;13.828;2023-03-04T04:32:47;5.60;87.20
9919;DHT22;4998;51.024;13.828;2023-03-04T04:35:14;5.60;87.30
9919;DHT22;4998;51.024;13.828;2023-03-04T04:37:41;5.60;87.30
9919;DHT22;4998;51.024;13.828;2023-03-04T04:40:17;5.60;87.30
9919;DHT22;4998;51.024;13.828;2023-03-04T04:42:44;5.60;87.40
9919;DHT22;4998;51.024;13.828;2023-03-04T04:45:12;5.60;87.20
9919;DHT22;4998;51.024;13.828;2023-03-04T04:47:39;5.60;87.20
9919;DHT22;4998;51.024;13.828;2023-03-04T04:50:07;5.60;87.30
9919;DHT22;4998;51.024;13.828;2023-03-04T04:52:34;5.60;87.30
9919;DHT22;4998;51.024;13.828;2023-03-04T04:55:01;5.60;87.30
9919;DHT22;4998;51.024;13.828;2023-03-04T04:57:28;5.60;87.30
9919;DHT22;4998;51.024;13.828;2023-03-04T04:59:55;5.60;87.30
9919;DHT22;4998;51.024;13.828;2023-03-04T05:02:24;5.60;87.30
9919;DHT22;4998;51.024;13.828;2023-03-04T05:04:51;5.60;87.30
9919;DHT22;4998;51.024;13.828;2023-03-04T05:07:18;5.60;87.30
9919;DHT22;4998;51.024;13.828;2023-03-04T05:09:45;5.60;87.30
9919;DHT22;4998;51.024;13.828;2023-03-04T05:12:12;5.60;87.10
9919;DHT22;4998;51.024;13.828;2023-03-04T05:14:39;5.60;87.10
9919;DHT22;4998;51.024;13.828;2023-03-04T05:17:06;5.60;87.10
9919;DHT22;4998;51.024;13.828;2023-03-04T05:19:34;5.70;87.20
9919;DHT22;4998;51.024;13.828;2023-03-04T05:22:01;5.60;87.10
9919;DHT22;4998;51.024;13.828;2023-03-04T05:24:28;5.70;87.30
9919;DHT22;4998;51.024;13.828;2023-03-04T05:26:55;5.70;87.30
9919;DHT22;4998;51.024;13.828;2023-03-04T05:29:22;5.70;87.30
9919;DHT22;4998;51.024;13.828;2023-03-04T05:31:49;5.70;87.20
9919;DHT22;4998;51.024;13.828;2023-03-04T05:34:16;5.70;87.10
9919;DHT22;4998;51.024;13.828;2023-03-04T05:36:45;5.70;87.10
9919;DHT22;4998;51.024;13.828;2023-03-04T05:39:12;5.70;87.00
9919;DHT22;4998;51.024;13.828;2023-03-04T05:41:39;5.80;87.20
9919;DHT22;4998;51.024;13.828;2023-03-04T05:44:06;5.80;87.20
9919;DHT22;4998;51.024;13.828;2023-03-04T05:46:33;5.80;87.10
9919;DHT22;4998;51.024;13.828;2023-03-04T05:49:00;5.80;87.10
9919;DHT22;4998;51.024;13.828;2023-03-04T05:51:26;5.80;87.10
9919;DHT22;4998;51.024;13.828;2023-03-04T05:53:55;5.80;87.00
9919;DHT22;4998;51.024;13.828;2023-03-04T05:56:22;5.80;87.10
9919;DHT22;4998;51.024;13.828;2023-03-04T05:58:49;5.80;87.00
9919;DHT22;4998;51.024;13.828;2023-03-04T06:01:16;5.80;87.00
9919;DHT22;4998;51.024;13.828;2023-03-04T06:03:43;5.90;87.10
9919;DHT22;4998;51.024;13.828;2023-03-04T06:06:13;5.90;87.10
9919;DHT22;4998;51.024;13.828;2023-03-04T06:08:40;5.90;87.00
9919;DHT22;4998;51.024;13.828;2023-03-04T06:11:08;5.90;86.90
9919;DHT22;4998;51.024;13.828;2023-03-04T06:13:35;5.90;86.80
9919;DHT22;4998;51.024;13.828;2023-03-04T06:16:03;6.00;86.90
9919;DHT22;4998;51.024;13.828;2023-03-04T06:18:30;6.00;87.00
9919;DHT22;4998;51.024;13.828;2023-03-04T06:20:57;6.00;86.80
9919;DHT22;4998;51.024;13.828;2023-03-04T06:23:25;6.00;86.70
9919;DHT22;4998;51.024;13.828;2023-03-04T06:25:53;6.00;86.70
9919;DHT22;4998;51.024;13.828;2023-03-04T06:28:22;6.00;86.80
9919;DHT22;4998;51.024;13.828;2023-03-04T06:30:50;6.00;86.80
9919;DHT22;4998;51.024;13.828;2023-03-04T06:33:18;6.00;86.90
9919;DHT22;4998;51.024;13.828;2023-03-04T06:35:45;6.10;87.10
9919;DHT22;4998;51.024;13.828;2023-03-04T06:38:12;6.10;86.90
9919;DHT22;4998;51.024;13.828;2023-03-04T06:40:39;6.10;86.80
9919;DHT22;4998;51.024;13.828;2023-03-04T06:43:06;6.10;86.90
9919;DHT22;4998;51.024;13.828;2023-03-04T06:45:34;6.10;87.00
9919;DHT22;4998;51.024;13.828;2023-03-04T06:48:01;6.10;86.90
9919;DHT22;4998;51.024;13.828;2023-03-04T06:50:28;6.20;87.00
9919;DHT22;4998;51.024;13.828;2023-03-04T06:52:55;6.20;87.10
9919;DHT22;4998;51.024;13.828;2023-03-04T06:55:23;6.20;86.90
9919;DHT22;4998;51.024;13.828;2023-03-04T06:57:50;6.20;86.90
9919;DHT22;4998;51.024;13.828;2023-03-04T07:00:17;6.20;86.90
9919;DHT22;4998;51.024;13.828;2023-03-04T07:02:46;6.20;86.90
9919;DHT22;4998;51.024;13.828;2023-03-04T07:05:13;6.20;87.90
9919;DHT22;4998;51.024;13.828;2023-03-04T07:07:40;6.20;87.20
9919;DHT22;4998;51.024;13.828;2023-03-04T07:10:09;6.20;87.40
9919;DHT22;4998;51.024;13.828;2023-03-04T07:12:36;6.20;87.50
9919;DHT22;4998;51.024;13.828;2023-03-04T07:15:04;6.20;87.60
9919;DHT22;4998;51.024;13.828;2023-03-04T07:17:31;6.20;87.70
9919;DHT22;4998;51.024;13.828;2023-03-04T07:20:00;6.30;87.90
9919;DHT22;4998;51.024;13.828;2023-03-04T07:22:27;6.30;88.00
9919;DHT22;4998;51.024;13.828;2023-03-04T07:24:55;6.30;88.00
9919;DHT22;4998;51.024;13.828;2023-03-04T07:27:22;6.30;88.00
9919;DHT22;4998;51.024;13.828;2023-03-04T07:29:49;6.20;88.80
9919;DHT22;4998;51.024;13.828;2023-03-04T07:32:16;6.30;88.20
9919;DHT22;4998;51.024;13.828;2023-03-04T07:34:43;6.30;88.20
9919;DHT22;4998;51.024;13.828;2023-03-04T07:37:11;6.40;88.30
9919;DHT22;4998;51.024;13.828;2023-03-04T07:39:38;6.40;88.50
9919;DHT22;4998;51.024;13.828;2023-03-04T07:42:05;6.40;88.60
9919;DHT22;4998;51.024;13.828;2023-03-04T07:44:32;6.40;88.60
9919;DHT22;4998;51.024;13.828;2023-03-04T07:46:59;6.40;88.60
9919;DHT22;4998;51.024;13.828;2023-03-04T07:49:26;6.40;89.10
9919;DHT22;4998;51.024;13.828;2023-03-04T07:51:53;6.40;89.00
9919;DHT22;4998;51.024;13.828;2023-03-04T07:54:21;6.40;89.00
9919;DHT22;4998;51.024;13.828;2023-03-04T07:56:48;6.50;89.20
9919;DHT22;4998;51.024;13.828;2023-03-04T07:59:15;6.50;89.10
9919;DHT22;4998;51.024;13.828;2023-03-04T08:01:42;6.50;89.20
9919;DHT22;4998;51.024;13.828;2023-03-04T08:04:09;6.50;89.30
9919;DHT22;4998;51.024;13.828;2023-03-04T08:06:36;6.50;89.40
9919;DHT22;4998;51.024;13.828;2023-03-04T08:09:07;6.60;89.60
9919;DHT22;4998;51.024;13.828;2023-03-04T08:11:37;6.60;89.50
9919;DHT22;4998;51.024;13.828;2023-03-04T08:14:04;6.60;89.60
9919;DHT22;4998;51.024;13.828;2023-03-04T08:16:31;6.60;89.70
9919;DHT22;4998;51.024;13.828;2023-03-04T08:19:02;6.70;89.80
9919;DHT22;4998;51.024;13.828;2023-03-04T08:21:30;6.70;89.90
9919;DHT22;4998;51.024;13.828;2023-03-04T08:23:58;6.70;89.80
9919;DHT22;4998;51.024;13.828;2023-03-04T08:26:28;6.70;89.70
9919;DHT22;4998;51.024;13.828;2023-03-04T08:29:00;6.80;89.80
9919;DHT22;4998;51.024;13.828;2023-03-04T08:31:27;6.80;89.90
9919;DHT22;4998;51.024;13.828;2023-03-04T08:33:54;6.80;89.80
9919;DHT22;4998;51.024;13.828;2023-03-04T08:36:22;6.90;89.80
9919;DHT22;4998;51.024;13.828;2023-03-04T08:38:49;6.90;89.80
9919;DHT22;4998;51.024;13.828;2023-03-04T08:41:16;6.90;89.90
9919;DHT22;4998;51.024;13.828;2023-03-04T08:43:43;7.00;90.00
9919;DHT22;4998;51.024;13.828;2023-03-04T08:46:11;7.00;90.00
9919;DHT22;4998;51.024;13.828;2023-03-04T08:48:38;7.00;90.00
9919;DHT22;4998;51.024;13.828;2023-03-04T08:51:11;7.10;90.00
9919;DHT22;4998;51.024;13.828;2023-03-04T08:53:38;7.10;90.00
9919;DHT22;4998;51.024;13.828;2023-03-04T08:56:06;7.10;90.00
9919;DHT22;4998;51.024;13.828;2023-03-04T08:58:34;7.20;90.00
9919;DHT22;4998;51.024;13.828;2023-03-04T09:01:02;7.20;90.00
9919;DHT22;4998;51.024;13.828;2023-03-04T09:03:30;7.20;90.00
9919;DHT22;4998;51.024;13.828;2023-03-04T09:05:57;7.20;89.90
9919;DHT22;4998;51.024;13.828;2023-03-04T09:08:24;7.30;89.90
9919;DHT22;4998;51.024;13.828;2023-03-04T09:10:52;7.30;89.90
9919;DHT22;4998;51.024;13.828;2023-03-04T09:13:20;7.30;89.80
9919;DHT22;4998;51.024;13.828;2023-03-04T09:15:49;7.30;89.90
9919;DHT22;4998;51.024;13.828;2023-03-04T09:18:17;7.30;89.90
9919;DHT22;4998;51.024;13.828;2023-03-04T09:20:45;7.30;89.90
9919;DHT22;4998;51.024;13.828;2023-03-04T09:23:13;7.30;89.90
9919;DHT22;4998;51.024;13.828;2023-03-04T09:25:41;7.30;90.00
9919;DHT22;4998;51.024;13.828;2023-03-04T09:28:09;7.30;90.00
9919;DHT22;4998;51.024;13.828;2023-03-04T09:30:37;7.30;90.10
9919;DHT22;4998;51.024;13.828;2023-03-04T09:33:03;7.30;90.10
9919;DHT22;4998;51.024;13.828;2023-03-04T09:35:31;7.40;90.10
9919;DHT22;4998;51.024;13.828;2023-03-04T09:37:59;7.40;90.10
9919;DHT22;4998;51.024;13.828;2023-03-04T09:40:29;7.40;90.20
9919;DHT22;4998;51.024;13.828;2023-03-04T09:42:58;7.40;90.30
9919;DHT22;4998;51.024;13.828;2023-03-04T09:45:32;7.40;90.30
9919;DHT22;4998;51.024;13.828;2023-03-04T09:48:01;7.40;90.40
9919;DHT22;4998;51.024;13.828;2023-03-04T09:50:31;7.40;90.40
9919;DHT22;4998;51.024;13.828;2023-03-04T09:53:14;7.40;90.30
9919;DHT22;4998;51.024;13.828;2023-03-04T09:55:44;7.40;90.40
9919;DHT22;4998;51.024;13.828;2023-03-04T09:58:24;7.50;90.50
9919;DHT22;4998;51.024;13.828;2023-03-04T10:00:55;7.50;90.50
9919;DHT22;4998;51.024;13.828;2023-03-04T10:03:39;7.50;90.50
9919;DHT22;4998;51.024;13.828;2023-03-04T10:06:10;7.60;90.50
9919;DHT22;4998;51.024;13.828;2023-03-04T10:08:44;7.60;90.40
9919;DHT22;4998;51.024;13.828;2023-03-04T10:11:14;7.60;90.40
9919;DHT22;4998;51.024;13.828;2023-03-04T10:13:50;7.60;90.40
9919;DHT22;4998;51.024;13.828;2023-03-04T10:16:20;7.60;90.50
9919;DHT22;4998;51.024;13.828;2023-03-04T10:18:51;7.60;90.50
9919;DHT22;4998;51.024;13.828;2023-03-04T10:21:23;7.60;90.60
9919;DHT22;4998;51.024;13.828;2023-03-04T10:23:53;7.60;90.60
9919;DHT22;4998;51.024;13.828;2023-03-04T10:26:21;7.60;90.60
9919;DHT22;4998;51.024;13.828;2023-03-04T10:28:48;7.70;90.70
9919;DHT22;4998;51.024;13.828;2023-03-04T10:31:19;7.70;90.60
9919;DHT22;4998;51.024;13.828;2023-03-04T10:33:48;7.70;90.70
9919;DHT22;4998;51.024;13.828;2023-03-04T10:36:29;7.70;90.70
9919;DHT22;4998;51.024;13.828;2023-03-04T10:39:02;7.70;91.60
9919;DHT22;4998;51.024;13.828;2023-03-04T10:41:31;7.80;91.80
9919;DHT22;4998;51.024;13.828;2023-03-04T10:44:03;7.90;91.70
9919;DHT22;4998;51.024;13.828;2023-03-04T10:46:31;8.00;91.50
9919;DHT22;4998;51.024;13.828;2023-03-04T10:48:58;8.10;91.10
9919;DHT22;4998;51.024;13.828;2023-03-04T10:51:27;8.10;90.80
9919;DHT22;4998;51.024;13.828;2023-03-04T10:53:56;8.10;90.70
9919;DHT22;4998;51.024;13.828;2023-03-04T10:56:33;8.10;90.60
9919;DHT22;4998;51.024;13.828;2023-03-04T10:59:32;8.10;90.60
9919;DHT22;4998;51.024;13.828;2023-03-04T11:02:01;8.10;90.50
9919;DHT22;4998;51.024;13.828;2023-03-04T11:04:33;8.10;90.40
9919;DHT22;4998;51.024;13.828;2023-03-04T11:07:00;8.10;90.50
9919;DHT22;4998;51.024;13.828;2023-03-04T11:09:28;8.10;90.50
9919;DHT22;4998;51.024;13.828;2023-03-04T11:11:59;8.10;90.60
9919;DHT22;4998;51.024;13.828;2023-03-04T11:14:30;8.00;90.60
9919;DHT22;4998;51.024;13.828;2023-03-04T11:17:02;8.10;90.70
9919;DHT22;4998;51.024;13.828;2023-03-04T11:19:34;8.00;90.70
9919;DHT22;4998;51.024;13.828;2023-03-04T11:22:03;8.00;90.70
9919;DHT22;4998;51.024;13.828;2023-03-04T11:24:33;8.00;90.70
9919;DHT22;4998;51.024;13.828;2023-03-04T11:27:05;8.00;90.70
9919;DHT22;4998;51.024;13.828;2023-03-04T11:29:37;8.00;90.80
9919;DHT22;4998;51.024;13.828;2023-03-04T11:32:10;8.00;90.80
9919;DHT22;4998;51.024;13.828;2023-03-04T11:34:43;8.00;91.00
9919;DHT22;4998;51.024;13.828;2023-03-04T11:37:17;8.00;91.10
9919;DHT22;4998;51.024;13.828;2023-03-04T11:39:51;8.10;91.30
9919;DHT22;4998;51.024;13.828;2023-03-04T11:42:27;8.10;91.40
9919;DHT22;4998;51.024;13.828;2023-03-04T11:44:55;8.20;91.50
9919;DHT22;4998;51.024;13.828;2023-03-04T11:47:40;8.30;91.40
9919;DHT22;4998;51.024;13.828;2023-03-04T11:50:19;8.30;91.20
9919;DHT22;4998;51.024;13.828;2023-03-04T11:53:21;8.30;91.00
9919;DHT22;4998;51.024;13.828;2023-03-04T11:56:03;8.30;90.90
9919;DHT22;4998;51.024;13.828;2023-03-04T12:01:44;8.30;90.80
9919;DHT22;4998;51.024;13.828;2023-03-04T12:04:27;8.30;90.70
9919;DHT22;4998;51.024;13.828;2023-03-04T12:07:11;8.30;90.80
9919;DHT22;4998;51.024;13.828;2023-03-04T12:09:47;8.30;90.80
9919;DHT22;4998;51.024;13.828;2023-03-04T12:12:38;8.30;90.90
9919;DHT22;4998;51.024;13.828;2023-03-04T12:15:15;8.30;90.90
9919;DHT22;4998;51.024;13.828;2023-03-04T12:18:20;8.30;91.00
9919;DHT22;4998;51.024;13.828;2023-03-04T12:20:59;8.30;91.00
9919;DHT22;4998;51.024;13.828;2023-03-04T12:23:56;8.30;91.00
9919;DHT22;4998;51.024;13.828;2023-03-04T12:26:32;8.40;91.10
9919;DHT22;4998;51.024;13.828;2023-03-04T12:29:06;8.40;91.10
9919;DHT22;4998;51.024;13.828;2023-03-04T12:31:40;8.50;91.10
9919;DHT22;4998;51.024;13.828;2023-03-04T12:34:29;8.50;91.00
9919;DHT22;4998;51.024;13.828;2023-03-04T12:37:20;8.60;91.00
9919;DHT22;4998;51.024;13.828;2023-03-04T12:40:07;8.70;91.10
9919;DHT22;4998;51.024;13.828;2023-03-04T12:42:49;8.70;90.90
9919;DHT22;4998;51.024;13.828;2023-03-04T12:45:26;8.70;90.80
9919;DHT22;4998;51.024;13.828;2023-03-04T12:48:03;8.80;90.60
9919;DHT22;4998;51.024;13.828;2023-03-04T12:50:38;8.80;90.40
9919;DHT22;4998;51.024;13.828;2023-03-04T12:53:14;8.90;90.30
9919;DHT22;4998;51.024;13.828;2023-03-04T12:55:44;8.80;90.50
9919;DHT22;4998;51.024;13.828;2023-03-04T12:58:15;8.80;90.10
9919;DHT22;4998;51.024;13.828;2023-03-04T13:00:51;8.80;90.10
9919;DHT22;4998;51.024;13.828;2023-03-04T13:03:27;8.80;90.00
9919;DHT22;4998;51.024;13.828;2023-03-04T13:06:04;8.80;90.00
9919;DHT22;4998;51.024;13.828;2023-03-04T13:08:38;8.90;90.00
9919;DHT22;4998;51.024;13.828;2023-03-04T13:14:31;8.90;90.00
9919;DHT22;4998;51.024;13.828;2023-03-04T13:17:00;8.90;90.00
9919;DHT22;4998;51.024;13.828;2023-03-04T13:19:47;8.90;89.80
9919;DHT22;4998;51.024;13.828;2023-03-04T13:22:41;9.00;89.90
9919;DHT22;4998;51.024;13.828;2023-03-04T13:25:34;9.00;89.70
9919;DHT22;4998;51.024;13.828;2023-03-04T13:28:13;9.00;89.50
9919;DHT22;4998;51.024;13.828;2023-03-04T13:31:18;9.00;89.40
9919;DHT22;4998;51.024;13.828;2023-03-04T13:33:58;9.00;89.40
9919;DHT22;4998;51.024;13.828;2023-03-04T13:39:32;9.10;88.60
9919;DHT22;4998;51.024;13.828;2023-03-04T13:42:00;9.10;88.50
9919;DHT22;4998;51.024;13.828;2023-03-04T13:44:56;9.10;88.50
9919;DHT22;4998;51.024;13.828;2023-03-04T13:47:38;9.10;88.40
9919;DHT22;4998;51.024;13.828;2023-03-04T13:50:28;9.10;88.10
9919;DHT22;4998;51.024;13.828;2023-03-04T13:52:59;9.20;88.20
9919;DHT22;4998;51.024;13.828;2023-03-04T13:55:35;9.20;87.50
9919;DHT22;4998;51.024;13.828;2023-03-04T13:58:17;9.30;87.20
9919;DHT22;4998;51.024;13.828;2023-03-04T14:00:49;9.30;86.80
9919;DHT22;4998;51.024;13.828;2023-03-04T14:03:21;9.30;86.70
9919;DHT22;4998;51.024;13.828;2023-03-04T14:06:17;9.40;86.60
9919;DHT22;4998;51.024;13.828;2023-03-04T14:08:45;9.40;86.60
9919;DHT22;4998;51.024;13.828;2023-03-04T14:11:15;9.50;86.50
9919;DHT22;4998;51.024;13.828;2023-03-04T14:13:44;9.50;85.80
9919;DHT22;4998;51.024;13.828;2023-03-04T14:16:11;9.60;85.50
9919;DHT22;4998;51.024;13.828;2023-03-04T14:18:39;9.60;85.40
9919;DHT22;4998;51.024;13.828;2023-03-04T14:21:06;9.60;85.10
9919;DHT22;4998;51.024;13.828;2023-03-04T14:23:34;9.70;84.70
9919;DHT22;4998;51.024;13.828;2023-03-04T14:26:06;9.70;84.60
9919;DHT22;4998;51.024;13.828;2023-03-04T14:28:41;9.70;84.50
9919;DHT22;4998;51.024;13.828;2023-03-04T14:31:15;9.70;84.00
9919;DHT22;4998;51.024;13.828;2023-03-04T14:33:44;9.70;83.10
9919;DHT22;4998;51.024;13.828;2023-03-04T14:36:16;9.70;83.10
9919;DHT22;4998;51.024;13.828;2023-03-04T14:38:44;9.70;83.10
9919;DHT22;4998;51.024;13.828;2023-03-04T14:41:18;9.80;83.30
9919;DHT22;4998;51.024;13.828;2023-03-04T14:43:52;9.70;83.20
9919;DHT22;4998;51.024;13.828;2023-03-04T14:46:21;9.80;83.00
9919;DHT22;4998;51.024;13.828;2023-03-04T14:48:52;9.80;83.00
9919;DHT22;4998;51.024;13.828;2023-03-04T14:51:40;9.80;82.50
9919;DHT22;4998;51.024;13.828;2023-03-04T14:54:29;9.80;82.50
9919;DHT22;4998;51.024;13.828;2023-03-04T14:56:58;9.80;82.60
9919;DHT22;4998;51.024;13.828;2023-03-04T14:59:30;9.80;82.10
9919;DHT22;4998;51.024;13.828;2023-03-04T15:05:00;9.80;82.20
9919;DHT22;4998;51.024;13.828;2023-03-04T15:07:34;9.80;81.70
9919;DHT22;4998;51.024;13.828;2023-03-04T15:10:04;9.80;81.70
9919;DHT22;4998;51.024;13.828;2023-03-04T15:12:34;9.80;81.70
9919;DHT22;4998;51.024;13.828;2023-03-04T15:15:28;9.80;81.30
9919;DHT22;4998;51.024;13.828;2023-03-04T15:17:57;9.80;81.00
9919;DHT22;4998;51.024;13.828;2023-03-04T15:20:25;9.90;80.50
9919;DHT22;4998;51.024;13.828;2023-03-04T15:22:58;9.90;79.90
9919;DHT22;4998;51.024;13.828;2023-03-04T15:25:25;9.80;79.30
9919;DHT22;4998;51.024;13.828;2023-03-04T15:27:53;9.90;79.30
9919;DHT22;4998;51.024;13.828;2023-03-04T15:30:25;9.80;78.80
9919;DHT22;4998;51.024;13.828;2023-03-04T15:32:53;9.80;78.50
9919;DHT22;4998;51.024;13.828;2023-03-04T15:35:22;9.90;78.10
9919;DHT22;4998;51.024;13.828;2023-03-04T15:37:50;9.90;77.80
9919;DHT22;4998;51.024;13.828;2023-03-04T15:40:25;9.80;77.20
9919;DHT22;4998;51.024;13.828;2023-03-04T15:42:53;9.90;77.40
9919;DHT22;4998;51.024;13.828;2023-03-04T15:45:23;9.80;76.60
9919;DHT22;4998;51.024;13.828;2023-03-04T15:47:50;9.90;76.00
9919;DHT22;4998;51.024;13.828;2023-03-04T15:50:19;9.80;75.10
9919;DHT22;4998;51.024;13.828;2023-03-04T15:52:46;9.80;75.10
9919;DHT22;4998;51.024;13.828;2023-03-04T15:55:17;9.80;74.10
9919;DHT22;4998;51.024;13.828;2023-03-04T15:57:45;9.80;74.00
9919;DHT22;4998;51.024;13.828;2023-03-04T16:00:14;9.80;72.50
9919;DHT22;4998;51.024;13.828;2023-03-04T16:02:43;9.80;72.60
9919;DHT22;4998;51.024;13.828;2023-03-04T16:05:11;9.80;72.20
9919;DHT22;4998;51.024;13.828;2023-03-04T16:07:40;9.80;72.10
9919;DHT22;4998;51.024;13.828;2023-03-04T16:10:16;9.70;72.20
9919;DHT22;4998;51.024;13.828;2023-03-04T16:12:44;9.70;71.80
9919;DHT22;4998;51.024;13.828;2023-03-04T16:15:16;9.60;71.70
9919;DHT22;4998;51.024;13.828;2023-03-04T16:17:45;9.60;71.20
9919;DHT22;4998;51.024;13.828;2023-03-04T16:20:14;9.60;71.20
9919;DHT22;4998;51.024;13.828;2023-03-04T16:22:42;9.60;71.30
9919;DHT22;4998;51.024;13.828;2023-03-04T16:25:11;9.60;71.60
9919;DHT22;4998;51.024;13.828;2023-03-04T16:27:39;9.50;71.70
9919;DHT22;4998;51.024;13.828;2023-03-04T16:30:10;9.50;71.70
9919;DHT22;4998;51.024;13.828;2023-03-04T16:32:38;9.50;71.90
9919;DHT22;4998;51.024;13.828;2023-03-04T16:35:07;9.50;71.50